Peregrina — FHMO — position and weather

sailwx.info

Track history (hours):
 
Tides and Currents Weather Stations Pressure Air Temp Water Temp Dewpoint Dewpoint Depression Visibility Wind Speed Wind Dir Waves Ship Positions

Peregrina

Last reported at 2017-Oct-05 12:41 UTC. Time now 2017-Oct-17 20:21 UTC.
Position N 46°09' W 001°09'.
Warning: this ship's position is 12 days out of date.

Length 12 m.

Type: Sailing vessel. MMSI: 228007600.

Date/timePositionNaut miles runAvg speedWind from/ knotsBaromVisibWave heightAir tempDewpointWater temp
2017-Oct-05 12:41N 46°09' W 001°09'0 0.0
2017-Oct-05 12:29N 46°09' W 001°09'0 0.0
2017-Oct-05 11:58N 46°09' W 001°09'0 0.0
2017-Oct-04 18:59N 46°09' W 001°09'0 0.0
2017-Oct-04 18:28N 46°09' W 001°09'0 0.0
2017-Oct-04 18:00N 46°09' W 001°09'0 0.0
2017-Oct-04 17:27N 46°09' W 001°09'0 0.0
2017-Oct-04 17:00N 46°09' W 001°09'0 0.0
2017-Oct-04 16:30N 46°09' W 001°09'0 0.0
2017-Oct-04 15:55N 46°09' W 001°09'0 0.0
2017-Oct-04 15:28N 46°09' W 001°09'0 0.0
2017-Oct-04 14:59N 46°09' W 001°09'0 0.0
2017-Oct-04 14:27N 46°09' W 001°09'0 0.0
2017-Oct-04 14:00N 46°09' W 001°09'0 0.0
2017-Oct-04 13:28N 46°09' W 001°09'0 0.0
2017-Oct-04 12:58N 46°09' W 001°09'0 0.0
2017-Oct-04 12:30N 46°09' W 001°09'0 0.0
2017-Oct-04 12:00N 46°09' W 001°09'0 0.0
2017-Oct-04 11:28N 46°09' W 001°09'0 0.0
2017-Oct-04 10:58N 46°09' W 001°09'0 0.0
2017-Oct-04 10:28N 46°09' W 001°09'0 0.0
2017-Oct-04 09:59N 46°09' W 001°09'0 0.0
2017-Oct-04 09:30N 46°09' W 001°09'0 0.0
2017-Oct-04 09:00N 46°09' W 001°09'0 0.0
2017-Oct-04 08:31N 46°09' W 001°09'  
2017-Oct-01 23:51N 46°09' W 001°09'0 0.4
2017-Oct-01 23:31N 46°09' W 001°09'0 0.6
2017-Oct-01 23:00N 46°09' W 001°10'1 2.6
2017-Oct-01 22:30N 46°08' W 001°11'1 2.7
2017-Oct-01 22:00N 46°08' W 001°13'1 3.0
2017-Oct-01 21:30N 46°07' W 001°15'2 3.0
2017-Oct-01 20:59N 46°07' W 001°17'34 4.7
2017-Oct-01 13:36N 46°28' W 001°56'1 5.9
2017-Oct-01 13:30N 46°29' W 001°57'3 5.5
2017-Oct-01 13:00N 46°31' W 001°59'  
2017-Sep-28 11:58N 47°23' W 003°13'0 0.0
2017-Sep-28 11:30N 47°23' W 003°13'1 1.1
2017-Sep-28 11:00N 47°23' W 003°13'1 1.1
2017-Sep-28 10:30N 47°24' W 003°12'0 1.0
2017-Sep-28 10:00N 47°24' W 003°12'0 0.9
2017-Sep-28 09:29N 47°25' W 003°12'0 0.6
2017-Sep-28 08:59N 47°25' W 003°12'0 0.8
2017-Sep-28 08:30N 47°25' W 003°13'1 1.5
2017-Sep-28 07:52N 47°25' W 003°14'0 1.0
2017-Sep-28 07:23N 47°25' W 003°15'0 1.0
2017-Sep-28 06:58N 47°25' W 003°15'1 1.1
2017-Sep-28 06:30N 47°26' W 003°16'1 1.1
2017-Sep-28 05:42N 47°26' W 003°17'0 0.9
2017-Sep-28 05:30N 47°26' W 003°17'1 1.1
2017-Sep-28 05:00N 47°27' W 003°18'0 1.0
2017-Sep-28 04:30N 47°27' W 003°19'66 3.4
2017-Sep-27 08:53N 47°57' W 004°46'4 4.2
2017-Sep-27 07:54N 48°01' W 004°47'3 6.3
2017-Sep-27 07:30N 48°04' W 004°46'3 5.8
2017-Sep-27 07:00N 48°06' W 004°44'2 3.7
2017-Sep-27 06:30N 48°08' W 004°46'2 4.5
2017-Sep-27 06:00N 48°10' W 004°44'2 4.9
2017-Sep-27 05:30N 48°12' W 004°43'2 3.9
2017-Sep-27 05:00N 48°14' W 004°42'2 4.6
2017-Sep-27 04:30N 48°16' W 004°40'3 5.3
2017-Sep-27 04:00N 48°18' W 004°38'3 5.5
2017-Sep-27 03:30N 48°20' W 004°35'3 5.2
2017-Sep-27 03:00N 48°21' W 004°32'2 4.3
2017-Sep-27 02:30N 48°22' W 004°29'2 4.6
2017-Sep-27 02:00N 48°23' W 004°26'1 0.1
2017-Sep-26 16:58N 48°24' W 004°26'0 0.0
2017-Sep-26 16:29N 48°24' W 004°26'0 0.0
2017-Sep-26 16:00N 48°24' W 004°26'0 0.0
2017-Sep-26 15:28N 48°24' W 004°26'0 0.0
2017-Sep-26 14:58N 48°24' W 004°26'0 0.0
2017-Sep-26 14:29N 48°24' W 004°26'0 0.0
2017-Sep-26 13:48N 48°24' W 004°26'0 0.0
2017-Sep-26 13:30N 48°24' W 004°26'0 0.0
2017-Sep-26 13:00N 48°24' W 004°26'0 0.0
2017-Sep-26 12:30N 48°24' W 004°26'0 0.0
2017-Sep-26 12:00N 48°24' W 004°26'0 0.0
2017-Sep-26 10:12N 48°24' W 004°26'0 0.0
2017-Sep-26 10:00N 48°24' W 004°26'0 0.0
2017-Sep-26 09:31N 48°24' W 004°26'0 0.0
2017-Sep-26 08:58N 48°24' W 004°26'0 0.0
2017-Sep-26 08:30N 48°24' W 004°26'  
Track history (hours):
 
Tides and Currents Weather Stations Pressure Air Temp Water Temp Dewpoint Dewpoint Depression Visibility Wind Speed Wind Dir Waves Ship Positions

Peregrina

Last reported at 2017-Oct-05 12:41 UTC. Time now 2017-Oct-17 20:21 UTC.
Position N 46°09' W 001°09'.
Warning: this ship's position is 12 days out of date.

Length 12 m.

Type: Sailing vessel. MMSI: 228007600.

Date/timePositionNaut miles runAvg speedWind from/ knotsBaromVisibWave heightAir tempDewpointWater temp
2017-Oct-05 12:41N 46°09' W 001°09'0 0.0
2017-Oct-05 12:29N 46°09' W 001°09'0 0.0
2017-Oct-05 11:58N 46°09' W 001°09'0 0.0
2017-Oct-04 18:59N 46°09' W 001°09'0 0.0
2017-Oct-04 18:28N 46°09' W 001°09'0 0.0
2017-Oct-04 18:00N 46°09' W 001°09'0 0.0
2017-Oct-04 17:27N 46°09' W 001°09'0 0.0
2017-Oct-04 17:00N 46°09' W 001°09'0 0.0
2017-Oct-04 16:30N 46°09' W 001°09'0 0.0
2017-Oct-04 15:55N 46°09' W 001°09'0 0.0
2017-Oct-04 15:28N 46°09' W 001°09'0 0.0
2017-Oct-04 14:59N 46°09' W 001°09'0 0.0
2017-Oct-04 14:27N 46°09' W 001°09'0 0.0
2017-Oct-04 14:00N 46°09' W 001°09'0 0.0
2017-Oct-04 13:28N 46°09' W 001°09'0 0.0
2017-Oct-04 12:58N 46°09' W 001°09'0 0.0
2017-Oct-04 12:30N 46°09' W 001°09'0 0.0
2017-Oct-04 12:00N 46°09' W 001°09'0 0.0
2017-Oct-04 11:28N 46°09' W 001°09'0 0.0
2017-Oct-04 10:58N 46°09' W 001°09'0 0.0
2017-Oct-04 10:28N 46°09' W 001°09'0 0.0
2017-Oct-04 09:59N 46°09' W 001°09'0 0.0
2017-Oct-04 09:30N 46°09' W 001°09'0 0.0
2017-Oct-04 09:00N 46°09' W 001°09'0 0.0
2017-Oct-04 08:31N 46°09' W 001°09'  
2017-Oct-01 23:51N 46°09' W 001°09'0 0.4
2017-Oct-01 23:31N 46°09' W 001°09'0 0.6
2017-Oct-01 23:00N 46°09' W 001°10'1 2.6
2017-Oct-01 22:30N 46°08' W 001°11'1 2.7
2017-Oct-01 22:00N 46°08' W 001°13'1 3.0
2017-Oct-01 21:30N 46°07' W 001°15'2 3.0
2017-Oct-01 20:59N 46°07' W 001°17'34 4.7
2017-Oct-01 13:36N 46°28' W 001°56'1 5.9
2017-Oct-01 13:30N 46°29' W 001°57'3 5.5
2017-Oct-01 13:00N 46°31' W 001°59'  
2017-Sep-28 11:58N 47°23' W 003°13'0 0.0
2017-Sep-28 11:30N 47°23' W 003°13'1 1.1
2017-Sep-28 11:00N 47°23' W 003°13'1 1.1
2017-Sep-28 10:30N 47°24' W 003°12'0 1.0
2017-Sep-28 10:00N 47°24' W 003°12'0 0.9
2017-Sep-28 09:29N 47°25' W 003°12'0 0.6
2017-Sep-28 08:59N 47°25' W 003°12'0 0.8
2017-Sep-28 08:30N 47°25' W 003°13'1 1.5
2017-Sep-28 07:52N 47°25' W 003°14'0 1.0
2017-Sep-28 07:23N 47°25' W 003°15'0 1.0
2017-Sep-28 06:58N 47°25' W 003°15'1 1.1
2017-Sep-28 06:30N 47°26' W 003°16'1 1.1
2017-Sep-28 05:42N 47°26' W 003°17'0 0.9
2017-Sep-28 05:30N 47°26' W 003°17'1 1.1
2017-Sep-28 05:00N 47°27' W 003°18'0 1.0
2017-Sep-28 04:30N 47°27' W 003°19'66 3.4
2017-Sep-27 08:53N 47°57' W 004°46'4 4.2
2017-Sep-27 07:54N 48°01' W 004°47'3 6.3
2017-Sep-27 07:30N 48°04' W 004°46'3 5.8
2017-Sep-27 07:00N 48°06' W 004°44'2 3.7
2017-Sep-27 06:30N 48°08' W 004°46'2 4.5
2017-Sep-27 06:00N 48°10' W 004°44'2 4.9
2017-Sep-27 05:30N 48°12' W 004°43'2 3.9
2017-Sep-27 05:00N 48°14' W 004°42'2 4.6
2017-Sep-27 04:30N 48°16' W 004°40'3 5.3
2017-Sep-27 04:00N 48°18' W 004°38'3 5.5
2017-Sep-27 03:30N 48°20' W 004°35'3 5.2
2017-Sep-27 03:00N 48°21' W 004°32'2 4.3
2017-Sep-27 02:30N 48°22' W 004°29'2 4.6
2017-Sep-27 02:00N 48°23' W 004°26'1 0.1
2017-Sep-26 16:58N 48°24' W 004°26'0 0.0
2017-Sep-26 16:29N 48°24' W 004°26'0 0.0
2017-Sep-26 16:00N 48°24' W 004°26'0 0.0
2017-Sep-26 15:28N 48°24' W 004°26'0 0.0
2017-Sep-26 14:58N 48°24' W 004°26'0 0.0
2017-Sep-26 14:29N 48°24' W 004°26'0 0.0
2017-Sep-26 13:48N 48°24' W 004°26'0 0.0
2017-Sep-26 13:30N 48°24' W 004°26'0 0.0
2017-Sep-26 13:00N 48°24' W 004°26'0 0.0
2017-Sep-26 12:30N 48°24' W 004°26'0 0.0
2017-Sep-26 12:00N 48°24' W 004°26'0 0.0
2017-Sep-26 10:12N 48°24' W 004°26'0 0.0
2017-Sep-26 10:00N 48°24' W 004°26'0 0.0
2017-Sep-26 09:31N 48°24' W 004°26'0 0.0
2017-Sep-26 08:58N 48°24' W 004°26'0 0.0
2017-Sep-26 08:30N 48°24' W 004°26'  

Dump ship's entire track history